sensor_id;sensor_type;location;lat;lon;timestamp;temperature;humidity
1948;DHT22;974;52.400;9.818;2023-03-11T00:02:13;0.50;99.90
1948;DHT22;974;52.400;9.818;2023-03-11T00:04:38;0.40;99.90
1948;DHT22;974;52.400;9.818;2023-03-11T00:07:08;0.50;99.90
1948;DHT22;974;52.400;9.818;2023-03-11T00:09:34;0.50;99.90
1948;DHT22;974;52.400;9.818;2023-03-11T00:12:00;0.40;99.90
1948;DHT22;974;52.400;9.818;2023-03-11T00:14:26;0.30;99.90
1948;DHT22;974;52.400;9.818;2023-03-11T00:16:52;0.40;99.90
1948;DHT22;974;52.400;9.818;2023-03-11T00:19:17;0.40;99.90
1948;DHT22;974;52.400;9.818;2023-03-11T00:21:43;0.40;99.90
1948;DHT22;974;52.400;9.818;2023-03-11T00:24:08;0.50;99.90
1948;DHT22;974;52.400;9.818;2023-03-11T00:26:34;0.50;99.90
1948;DHT22;974;52.400;9.818;2023-03-11T00:28:59;0.40;99.90
1948;DHT22;974;52.400;9.818;2023-03-11T00:31:25;0.50;99.90
1948;DHT22;974;52.400;9.818;2023-03-11T00:33:51;0.40;99.90
1948;DHT22;974;52.400;9.818;2023-03-11T00:36:31;0.40;99.90
1948;DHT22;974;52.400;9.818;2023-03-11T00:38:59;0.40;99.90
1948;DHT22;974;52.400;9.818;2023-03-11T00:41:27;0.40;99.90
1948;DHT22;974;52.400;9.818;2023-03-11T00:43:52;0.40;99.90
1948;DHT22;974;52.400;9.818;2023-03-11T00:46:18;0.50;99.90
1948;DHT22;974;52.400;9.818;2023-03-11T00:48:44;0.50;99.90
1948;DHT22;974;52.400;9.818;2023-03-11T00:51:13;0.50;99.90
1948;DHT22;974;52.400;9.818;2023-03-11T00:53:40;0.50;99.90
1948;DHT22;974;52.400;9.818;2023-03-11T00:56:07;0.50;99.90
1948;DHT22;974;52.400;9.818;2023-03-11T00:58:33;0.50;99.90
1948;DHT22;974;52.400;9.818;2023-03-11T01:01:00;0.40;99.90
1948;DHT22;974;52.400;9.818;2023-03-11T01:03:26;0.40;99.90
1948;DHT22;974;52.400;9.818;2023-03-11T01:05:51;0.50;99.90
1948;DHT22;974;52.400;9.818;2023-03-11T01:08:17;0.50;99.90
1948;DHT22;974;52.400;9.818;2023-03-11T01:10:42;0.50;99.90
1948;DHT22;974;52.400;9.818;2023-03-11T01:13:08;0.50;99.90
1948;DHT22;974;52.400;9.818;2023-03-11T01:15:35;0.40;99.90
1948;DHT22;974;52.400;9.818;2023-03-11T01:18:02;0.40;99.90
1948;DHT22;974;52.400;9.818;2023-03-11T01:20:28;0.50;99.90
1948;DHT22;974;52.400;9.818;2023-03-11T01:22:54;0.50;99.90
1948;DHT22;974;52.400;9.818;2023-03-11T01:25:21;0.50;99.90
1948;DHT22;974;52.400;9.818;2023-03-11T01:27:47;0.50;99.90
1948;DHT22;974;52.400;9.818;2023-03-11T01:30:16;0.50;99.90
1948;DHT22;974;52.400;9.818;2023-03-11T01:32:42;0.40;99.90
1948;DHT22;974;52.400;9.818;2023-03-11T01:35:10;0.40;99.90
1948;DHT22;974;52.400;9.818;2023-03-11T01:37:37;0.30;99.90
1948;DHT22;974;52.400;9.818;2023-03-11T01:40:03;0.40;99.90
1948;DHT22;974;52.400;9.818;2023-03-11T01:42:29;0.40;99.90
1948;DHT22;974;52.400;9.818;2023-03-11T01:44:54;0.40;99.90
1948;DHT22;974;52.400;9.818;2023-03-11T01:47:32;0.40;99.90
1948;DHT22;974;52.400;9.818;2023-03-11T01:49:59;0.30;99.90
1948;DHT22;974;52.400;9.818;2023-03-11T01:52:25;0.30;99.90
1948;DHT22;974;52.400;9.818;2023-03-11T01:54:50;0.30;99.90
1948;DHT22;974;52.400;9.818;2023-03-11T01:57:16;0.40;99.90
1948;DHT22;974;52.400;9.818;2023-03-11T01:59:49;0.40;99.90
1948;DHT22;974;52.400;9.818;2023-03-11T02:02:39;0.30;99.90
1948;DHT22;974;52.400;9.818;2023-03-11T02:05:05;0.40;99.90
1948;DHT22;974;52.400;9.818;2023-03-11T02:07:31;0.30;99.90
1948;DHT22;974;52.400;9.818;2023-03-11T02:09:57;0.30;99.90
1948;DHT22;974;52.400;9.818;2023-03-11T02:12:22;0.30;99.90
1948;DHT22;974;52.400;9.818;2023-03-11T02:14:50;0.30;99.90
1948;DHT22;974;52.400;9.818;2023-03-11T02:17:18;0.30;99.90
1948;DHT22;974;52.400;9.818;2023-03-11T02:22:19;0.30;99.90
1948;DHT22;974;52.400;9.818;2023-03-11T02:25:06;0.30;99.90
1948;DHT22;974;52.400;9.818;2023-03-11T02:27:37;0.30;99.90
1948;DHT22;974;52.400;9.818;2023-03-11T02:30:06;0.30;99.90
1948;DHT22;974;52.400;9.818;2023-03-11T02:32:32;0.40;99.90
1948;DHT22;974;52.400;9.818;2023-03-11T02:34:57;0.20;99.90
1948;DHT22;974;52.400;9.818;2023-03-11T02:37:23;0.30;99.90
1948;DHT22;974;52.400;9.818;2023-03-11T02:39:50;0.30;99.90
1948;DHT22;974;52.400;9.818;2023-03-11T02:44:48;0.30;99.90
1948;DHT22;974;52.400;9.818;2023-03-11T02:47:16;0.30;99.90
1948;DHT22;974;52.400;9.818;2023-03-11T02:49:41;0.30;99.90
1948;DHT22;974;52.400;9.818;2023-03-11T02:52:07;0.40;99.90
1948;DHT22;974;52.400;9.818;2023-03-11T02:54:32;0.40;99.90
1948;DHT22;974;52.400;9.818;2023-03-11T02:56:58;0.40;99.90
1948;DHT22;974;52.400;9.818;2023-03-11T02:59:23;0.50;99.90
1948;DHT22;974;52.400;9.818;2023-03-11T03:01:49;0.40;99.90
1948;DHT22;974;52.400;9.818;2023-03-11T03:04:14;0.30;99.90
1948;DHT22;974;52.400;9.818;2023-03-11T03:06:40;0.40;99.90
1948;DHT22;974;52.400;9.818;2023-03-11T03:09:05;0.40;99.90
1948;DHT22;974;52.400;9.818;2023-03-11T03:11:31;0.40;99.90
1948;DHT22;974;52.400;9.818;2023-03-11T03:13:56;0.30;99.90
1948;DHT22;974;52.400;9.818;2023-03-11T03:16:22;0.40;99.90
1948;DHT22;974;52.400;9.818;2023-03-11T03:18:47;0.30;99.90
1948;DHT22;974;52.400;9.818;2023-03-11T03:21:13;0.40;99.90
1948;DHT22;974;52.400;9.818;2023-03-11T03:23:38;0.40;99.90
1948;DHT22;974;52.400;9.818;2023-03-11T03:26:04;0.40;99.90
1948;DHT22;974;52.400;9.818;2023-03-11T03:28:30;0.40;99.90
1948;DHT22;974;52.400;9.818;2023-03-11T03:31:02;0.40;99.90
1948;DHT22;974;52.400;9.818;2023-03-11T03:33:28;0.40;99.90
1948;DHT22;974;52.400;9.818;2023-03-11T03:35:53;0.30;99.90
1948;DHT22;974;52.400;9.818;2023-03-11T03:38:19;0.40;99.90
1948;DHT22;974;52.400;9.818;2023-03-11T03:40:45;0.40;99.90
1948;DHT22;974;52.400;9.818;2023-03-11T03:43:11;0.30;99.90
1948;DHT22;974;52.400;9.818;2023-03-11T03:45:37;0.40;99.90
1948;DHT22;974;52.400;9.818;2023-03-11T03:48:02;0.40;99.90
1948;DHT22;974;52.400;9.818;2023-03-11T03:50:28;0.30;99.90
1948;DHT22;974;52.400;9.818;2023-03-11T03:52:54;0.40;99.90
1948;DHT22;974;52.400;9.818;2023-03-11T03:55:19;0.40;99.90
1948;DHT22;974;52.400;9.818;2023-03-11T03:57:44;0.30;99.90
1948;DHT22;974;52.400;9.818;2023-03-11T04:00:10;0.30;99.90
1948;DHT22;974;52.400;9.818;2023-03-11T04:02:36;0.30;99.90
1948;DHT22;974;52.400;9.818;2023-03-11T04:05:02;0.30;99.90
1948;DHT22;974;52.400;9.818;2023-03-11T04:07:28;0.30;99.90
1948;DHT22;974;52.400;9.818;2023-03-11T04:09:53;0.30;99.90
1948;DHT22;974;52.400;9.818;2023-03-11T04:12:19;0.30;99.90
1948;DHT22;974;52.400;9.818;2023-03-11T04:14:45;0.20;99.90
1948;DHT22;974;52.400;9.818;2023-03-11T04:17:11;0.30;99.90
1948;DHT22;974;52.400;9.818;2023-03-11T04:19:37;0.20;99.90
1948;DHT22;974;52.400;9.818;2023-03-11T04:22:03;0.30;99.90
1948;DHT22;974;52.400;9.818;2023-03-11T04:24:29;0.30;99.90
1948;DHT22;974;52.400;9.818;2023-03-11T04:26:54;0.20;99.90
1948;DHT22;974;52.400;9.818;2023-03-11T04:29:20;0.20;99.90
1948;DHT22;974;52.400;9.818;2023-03-11T04:31:45;0.20;99.90
1948;DHT22;974;52.400;9.818;2023-03-11T04:34:11;0.30;99.90
1948;DHT22;974;52.400;9.818;2023-03-11T04:36:36;0.20;99.90
1948;DHT22;974;52.400;9.818;2023-03-11T04:39:02;0.10;99.90
1948;DHT22;974;52.400;9.818;2023-03-11T04:41:28;0.20;99.90
1948;DHT22;974;52.400;9.818;2023-03-11T04:43:53;0.20;99.90
1948;DHT22;974;52.400;9.818;2023-03-11T04:46:18;0.20;99.90
1948;DHT22;974;52.400;9.818;2023-03-11T04:48:44;0.10;99.90
1948;DHT22;974;52.400;9.818;2023-03-11T04:51:09;0.20;99.90
1948;DHT22;974;52.400;9.818;2023-03-11T04:53:35;0.10;99.90
1948;DHT22;974;52.400;9.818;2023-03-11T04:56:00;0.00;99.90
1948;DHT22;974;52.400;9.818;2023-03-11T04:58:26;0.00;99.90
1948;DHT22;974;52.400;9.818;2023-03-11T05:00:52;0.00;99.90
1948;DHT22;974;52.400;9.818;2023-03-11T05:03:18;0.00;99.90
1948;DHT22;974;52.400;9.818;2023-03-11T05:05:44;0.00;99.90
1948;DHT22;974;52.400;9.818;2023-03-11T05:08:10;0.00;99.90
1948;DHT22;974;52.400;9.818;2023-03-11T05:10:35;0.00;99.90
1948;DHT22;974;52.400;9.818;2023-03-11T05:13:02;-0.10;99.90
1948;DHT22;974;52.400;9.818;2023-03-11T05:15:28;-0.10;99.90
1948;DHT22;974;52.400;9.818;2023-03-11T05:17:55;0.00;99.90
1948;DHT22;974;52.400;9.818;2023-03-11T05:20:21;0.10;99.90
1948;DHT22;974;52.400;9.818;2023-03-11T05:22:46;0.00;99.90
1948;DHT22;974;52.400;9.818;2023-03-11T05:25:12;0.00;99.90
1948;DHT22;974;52.400;9.818;2023-03-11T05:27:37;0.00;99.90
1948;DHT22;974;52.400;9.818;2023-03-11T05:30:03;-0.10;99.90
1948;DHT22;974;52.400;9.818;2023-03-11T05:32:29;0.10;99.90
1948;DHT22;974;52.400;9.818;2023-03-11T05:34:54;0.00;99.90
1948;DHT22;974;52.400;9.818;2023-03-11T05:37:20;0.00;99.90
1948;DHT22;974;52.400;9.818;2023-03-11T05:39:45;0.10;99.90
1948;DHT22;974;52.400;9.818;2023-03-11T05:42:11;0.00;99.90
1948;DHT22;974;52.400;9.818;2023-03-11T05:44:36;0.00;99.90
1948;DHT22;974;52.400;9.818;2023-03-11T05:47:02;0.10;99.90
1948;DHT22;974;52.400;9.818;2023-03-11T05:49:27;0.10;99.90
1948;DHT22;974;52.400;9.818;2023-03-11T05:51:53;0.10;99.90
1948;DHT22;974;52.400;9.818;2023-03-11T05:54:18;0.10;99.90
1948;DHT22;974;52.400;9.818;2023-03-11T05:56:44;0.10;99.90
1948;DHT22;974;52.400;9.818;2023-03-11T05:59:11;0.20;99.90
1948;DHT22;974;52.400;9.818;2023-03-11T06:01:37;0.10;99.90
1948;DHT22;974;52.400;9.818;2023-03-11T06:04:03;0.10;99.90
1948;DHT22;974;52.400;9.818;2023-03-11T06:06:29;0.20;99.90
1948;DHT22;974;52.400;9.818;2023-03-11T06:08:55;0.30;99.90
1948;DHT22;974;52.400;9.818;2023-03-11T06:11:21;0.20;99.90
1948;DHT22;974;52.400;9.818;2023-03-11T06:13:51;0.20;99.90
1948;DHT22;974;52.400;9.818;2023-03-11T06:16:17;0.10;99.90
1948;DHT22;974;52.400;9.818;2023-03-11T06:18:43;0.00;99.90
1948;DHT22;974;52.400;9.818;2023-03-11T06:21:14;0.20;99.90
1948;DHT22;974;52.400;9.818;2023-03-11T06:23:40;0.20;99.90
1948;DHT22;974;52.400;9.818;2023-03-11T06:26:05;0.20;99.90
1948;DHT22;974;52.400;9.818;2023-03-11T06:28:31;0.10;99.90
1948;DHT22;974;52.400;9.818;2023-03-11T06:31:09;0.20;99.90
1948;DHT22;974;52.400;9.818;2023-03-11T06:33:35;0.30;99.90
1948;DHT22;974;52.400;9.818;2023-03-11T06:36:02;0.20;99.90
1948;DHT22;974;52.400;9.818;2023-03-11T06:38:28;0.20;99.90
1948;DHT22;974;52.400;9.818;2023-03-11T06:40:53;0.20;99.90
1948;DHT22;974;52.400;9.818;2023-03-11T06:43:20;0.20;99.90
1948;DHT22;974;52.400;9.818;2023-03-11T06:45:46;0.20;99.90
1948;DHT22;974;52.400;9.818;2023-03-11T06:48:12;0.20;99.90
1948;DHT22;974;52.400;9.818;2023-03-11T06:50:37;0.20;99.90
1948;DHT22;974;52.400;9.818;2023-03-11T06:53:03;0.20;99.90
1948;DHT22;974;52.400;9.818;2023-03-11T06:55:31;0.20;99.90
1948;DHT22;974;52.400;9.818;2023-03-11T06:57:56;0.20;99.90
1948;DHT22;974;52.400;9.818;2023-03-11T07:00:22;0.20;99.90
1948;DHT22;974;52.400;9.818;2023-03-11T07:02:48;0.20;99.90
1948;DHT22;974;52.400;9.818;2023-03-11T07:05:13;0.20;99.90
1948;DHT22;974;52.400;9.818;2023-03-11T07:07:39;0.20;99.90
1948;DHT22;974;52.400;9.818;2023-03-11T07:10:05;0.30;99.90
1948;DHT22;974;52.400;9.818;2023-03-11T07:12:30;0.20;99.90
1948;DHT22;974;52.400;9.818;2023-03-11T07:14:57;0.30;99.90
1948;DHT22;974;52.400;9.818;2023-03-11T07:17:23;0.20;99.90
1948;DHT22;974;52.400;9.818;2023-03-11T07:19:50;0.30;99.90
1948;DHT22;974;52.400;9.818;2023-03-11T07:22:16;0.40;99.90
1948;DHT22;974;52.400;9.818;2023-03-11T07:24:44;0.40;99.90
1948;DHT22;974;52.400;9.818;2023-03-11T07:27:11;0.30;99.90
1948;DHT22;974;52.400;9.818;2023-03-11T07:29:36;0.40;99.90
1948;DHT22;974;52.400;9.818;2023-03-11T07:32:02;0.40;99.90
1948;DHT22;974;52.400;9.818;2023-03-11T07:34:27;0.40;99.90
1948;DHT22;974;52.400;9.818;2023-03-11T07:36:53;0.50;99.90
1948;DHT22;974;52.400;9.818;2023-03-11T07:39:18;0.50;99.90
1948;DHT22;974;52.400;9.818;2023-03-11T07:41:44;0.40;99.90
1948;DHT22;974;52.400;9.818;2023-03-11T07:44:14;0.50;99.90
1948;DHT22;974;52.400;9.818;2023-03-11T07:46:40;0.70;99.90
1948;DHT22;974;52.400;9.818;2023-03-11T07:49:06;0.40;99.90
1948;DHT22;974;52.400;9.818;2023-03-11T07:51:33;0.40;99.90
1948;DHT22;974;52.400;9.818;2023-03-11T07:54:00;0.50;99.90
1948;DHT22;974;52.400;9.818;2023-03-11T07:56:28;0.50;99.90
1948;DHT22;974;52.400;9.818;2023-03-11T07:58:54;0.50;99.90
1948;DHT22;974;52.400;9.818;2023-03-11T08:01:22;0.50;99.90
1948;DHT22;974;52.400;9.818;2023-03-11T08:03:50;0.60;99.90
1948;DHT22;974;52.400;9.818;2023-03-11T08:06:21;0.60;99.90
1948;DHT22;974;52.400;9.818;2023-03-11T08:08:48;0.60;99.90
1948;DHT22;974;52.400;9.818;2023-03-11T08:11:14;0.70;99.90
1948;DHT22;974;52.400;9.818;2023-03-11T08:13:41;0.80;99.90
1948;DHT22;974;52.400;9.818;2023-03-11T08:16:09;0.60;99.90
1948;DHT22;974;52.400;9.818;2023-03-11T08:18:35;0.60;99.90
1948;DHT22;974;52.400;9.818;2023-03-11T08:21:05;0.60;99.90
1948;DHT22;974;52.400;9.818;2023-03-11T08:23:31;0.60;99.90
1948;DHT22;974;52.400;9.818;2023-03-11T08:25:57;0.70;99.90
1948;DHT22;974;52.400;9.818;2023-03-11T08:28:22;0.80;99.90
1948;DHT22;974;52.400;9.818;2023-03-11T08:30:48;0.70;99.90
1948;DHT22;974;52.400;9.818;2023-03-11T08:33:14;0.60;99.90
1948;DHT22;974;52.400;9.818;2023-03-11T08:35:39;0.70;99.90
1948;DHT22;974;52.400;9.818;2023-03-11T08:38:05;0.80;99.90
1948;DHT22;974;52.400;9.818;2023-03-11T08:40:30;0.80;99.90
1948;DHT22;974;52.400;9.818;2023-03-11T08:42:56;0.80;99.90
1948;DHT22;974;52.400;9.818;2023-03-11T08:45:22;0.80;99.90
1948;DHT22;974;52.400;9.818;2023-03-11T08:47:47;0.90;99.90
1948;DHT22;974;52.400;9.818;2023-03-11T08:50:15;0.90;99.90
1948;DHT22;974;52.400;9.818;2023-03-11T08:52:41;0.90;99.90
1948;DHT22;974;52.400;9.818;2023-03-11T08:55:08;0.90;99.90
1948;DHT22;974;52.400;9.818;2023-03-11T08:57:36;0.90;99.90
1948;DHT22;974;52.400;9.818;2023-03-11T09:00:03;1.10;99.90
1948;DHT22;974;52.400;9.818;2023-03-11T09:02:29;0.90;99.90
1948;DHT22;974;52.400;9.818;2023-03-11T09:04:54;0.90;99.90
1948;DHT22;974;52.400;9.818;2023-03-11T09:07:20;1.10;99.90
1948;DHT22;974;52.400;9.818;2023-03-11T09:09:48;1.10;99.90
1948;DHT22;974;52.400;9.818;2023-03-11T09:12:14;1.30;99.90
1948;DHT22;974;52.400;9.818;2023-03-11T09:14:40;1.20;99.90
1948;DHT22;974;52.400;9.818;2023-03-11T09:17:07;1.30;99.90
1948;DHT22;974;52.400;9.818;2023-03-11T09:19:33;1.40;99.90
1948;DHT22;974;52.400;9.818;2023-03-11T09:22:00;1.50;99.90
1948;DHT22;974;52.400;9.818;2023-03-11T09:24:25;1.70;99.90
1948;DHT22;974;52.400;9.818;2023-03-11T09:26:51;1.60;99.90
1948;DHT22;974;52.400;9.818;2023-03-11T09:29:16;1.50;99.90
1948;DHT22;974;52.400;9.818;2023-03-11T09:31:42;1.30;99.90
1948;DHT22;974;52.400;9.818;2023-03-11T09:34:08;1.20;99.90
1948;DHT22;974;52.400;9.818;2023-03-11T09:36:34;1.20;99.90
1948;DHT22;974;52.400;9.818;2023-03-11T09:39:00;1.30;99.90
1948;DHT22;974;52.400;9.818;2023-03-11T09:41:50;1.40;99.90
1948;DHT22;974;52.400;9.818;2023-03-11T09:44:33;1.60;99.90
1948;DHT22;974;52.400;9.818;2023-03-11T09:49:58;1.80;99.90
1948;DHT22;974;52.400;9.818;2023-03-11T09:52:35;1.60;99.90
1948;DHT22;974;52.400;9.818;2023-03-11T09:55:06;1.70;99.90
1948;DHT22;974;52.400;9.818;2023-03-11T09:57:36;1.60;99.90
1948;DHT22;974;52.400;9.818;2023-03-11T10:00:05;1.70;99.90
1948;DHT22;974;52.400;9.818;2023-03-11T10:02:31;1.60;99.90
1948;DHT22;974;52.400;9.818;2023-03-11T10:05:08;1.80;99.90
1948;DHT22;974;52.400;9.818;2023-03-11T10:07:44;2.00;99.90
1948;DHT22;974;52.400;9.818;2023-03-11T10:10:13;1.90;99.90
1948;DHT22;974;52.400;9.818;2023-03-11T10:13:06;2.10;99.90
1948;DHT22;974;52.400;9.818;2023-03-11T10:15:51;2.30;99.90
1948;DHT22;974;52.400;9.818;2023-03-11T10:18:32;2.50;99.90
1948;DHT22;974;52.400;9.818;2023-03-11T10:21:17;2.40;99.90
1948;DHT22;974;52.400;9.818;2023-03-11T10:24:10;2.30;99.90
1948;DHT22;974;52.400;9.818;2023-03-11T10:26:44;2.40;99.90
1948;DHT22;974;52.400;9.818;2023-03-11T10:29:16;2.60;99.90
1948;DHT22;974;52.400;9.818;2023-03-11T10:32:24;2.50;99.90
1948;DHT22;974;52.400;9.818;2023-03-11T10:37:51;2.60;99.90
1948;DHT22;974;52.400;9.818;2023-03-11T10:40:22;2.50;99.90
1948;DHT22;974;52.400;9.818;2023-03-11T10:42:48;2.40;99.90
1948;DHT22;974;52.400;9.818;2023-03-11T10:45:15;2.40;99.90
1948;DHT22;974;52.400;9.818;2023-03-11T10:47:41;2.60;99.90
1948;DHT22;974;52.400;9.818;2023-03-11T10:50:13;2.50;99.90
1948;DHT22;974;52.400;9.818;2023-03-11T10:53:09;2.40;99.90
1948;DHT22;974;52.400;9.818;2023-03-11T10:55:35;2.40;99.90
1948;DHT22;974;52.400;9.818;2023-03-11T10:58:13;2.20;99.90
1948;DHT22;974;52.400;9.818;2023-03-11T11:00:39;2.20;99.90
1948;DHT22;974;52.400;9.818;2023-03-11T11:03:13;2.10;99.90
1948;DHT22;974;52.400;9.818;2023-03-11T11:05:41;2.20;99.90
1948;DHT22;974;52.400;9.818;2023-03-11T11:08:07;2.20;99.90
1948;DHT22;974;52.400;9.818;2023-03-11T11:10:38;2.30;99.90
1948;DHT22;974;52.400;9.818;2023-03-11T11:15:51;2.30;99.90
1948;DHT22;974;52.400;9.818;2023-03-11T11:18:17;2.30;99.90
1948;DHT22;974;52.400;9.818;2023-03-11T11:23:49;2.30;99.90
1948;DHT22;974;52.400;9.818;2023-03-11T11:26:21;2.40;99.90
1948;DHT22;974;52.400;9.818;2023-03-11T11:31:40;2.50;99.90
1948;DHT22;974;52.400;9.818;2023-03-11T11:34:27;2.50;99.90
1948;DHT22;974;52.400;9.818;2023-03-11T11:36:55;2.70;99.90
1948;DHT22;974;52.400;9.818;2023-03-11T11:39:25;2.80;99.90
1948;DHT22;974;52.400;9.818;2023-03-11T11:41:51;2.90;99.90
1948;DHT22;974;52.400;9.818;2023-03-11T11:44:20;2.80;99.90
1948;DHT22;974;52.400;9.818;2023-03-11T11:46:50;2.90;99.90
1948;DHT22;974;52.400;9.818;2023-03-11T11:49:27;2.80;99.90
1948;DHT22;974;52.400;9.818;2023-03-11T11:52:02;2.90;99.90
1948;DHT22;974;52.400;9.818;2023-03-11T11:54:37;3.10;99.90
1948;DHT22;974;52.400;9.818;2023-03-11T11:57:12;3.10;99.90
1948;DHT22;974;52.400;9.818;2023-03-11T11:59:38;3.30;99.90
1948;DHT22;974;52.400;9.818;2023-03-11T12:05:01;3.40;99.90
1948;DHT22;974;52.400;9.818;2023-03-11T12:16:22;4.40;99.90
1948;DHT22;974;52.400;9.818;2023-03-11T12:19:12;4.60;99.90
1948;DHT22;974;52.400;9.818;2023-03-11T12:21:58;6.00;99.90
1948;DHT22;974;52.400;9.818;2023-03-11T12:25:00;13.20;99.90
1948;DHT22;974;52.400;9.818;2023-03-11T12:27:35;19.20;99.90
1948;DHT22;974;52.400;9.818;2023-03-11T12:30:13;21.00;94.60
1948;DHT22;974;52.400;9.818;2023-03-11T12:32:48;18.70;60.00
1948;DHT22;974;52.400;9.818;2023-03-11T12:35:30;20.90;56.20
1948;DHT22;974;52.400;9.818;2023-03-11T12:38:15;23.10;58.40
1948;DHT22;974;52.400;9.818;2023-03-11T12:43:23;27.40;46.00
1948;DHT22;974;52.400;9.818;2023-03-11T12:45:50;29.70;44.10
1948;DHT22;974;52.400;9.818;2023-03-11T12:50:57;28.40;35.60
1948;DHT22;974;52.400;9.818;2023-03-11T12:53:47;30.50;40.20
1948;DHT22;974;52.400;9.818;2023-03-11T13:01:57;27.60;26.20
1948;DHT22;974;52.400;9.818;2023-03-11T13:07:39;33.20;31.30
1948;DHT22;974;52.400;9.818;2023-03-11T13:12:45;28.50;29.00
1948;DHT22;974;52.400;9.818;2023-03-11T13:18:11;20.80;32.10
1948;DHT22;974;52.400;9.818;2023-03-11T13:23:07;15.70;38.00
1948;DHT22;974;52.400;9.818;2023-03-11T13:42:51;9.00;53.80
1948;DHT22;974;52.400;9.818;2023-03-11T13:45:26;8.70;57.90
1948;DHT22;974;52.400;9.818;2023-03-11T13:47:56;8.90;59.10
1948;DHT22;974;52.400;9.818;2023-03-11T13:50:29;8.20;59.30
1948;DHT22;974;52.400;9.818;2023-03-11T13:52:57;8.10;62.10
1948;DHT22;974;52.400;9.818;2023-03-11T13:55:33;8.10;63.90
1948;DHT22;974;52.400;9.818;2023-03-11T13:58:00;7.90;63.40
1948;DHT22;974;52.400;9.818;2023-03-11T14:00:29;7.80;64.20
1948;DHT22;974;52.400;9.818;2023-03-11T14:02:57;7.50;66.10
1948;DHT22;974;52.400;9.818;2023-03-11T14:05:31;7.00;64.10
1948;DHT22;974;52.400;9.818;2023-03-11T14:08:17;7.50;70.40
1948;DHT22;974;52.400;9.818;2023-03-11T14:13:19;7.20;69.40
1948;DHT22;974;52.400;9.818;2023-03-11T14:16:06;7.00;69.80
1948;DHT22;974;52.400;9.818;2023-03-11T14:18:41;7.40;72.90
1948;DHT22;974;52.400;9.818;2023-03-11T14:21:19;7.30;74.70
1948;DHT22;974;52.400;9.818;2023-03-11T14:23:50;7.20;73.60
1948;DHT22;974;52.400;9.818;2023-03-11T14:26:21;7.20;73.20
1948;DHT22;974;52.400;9.818;2023-03-11T14:28:50;7.20;74.80
1948;DHT22;974;52.400;9.818;2023-03-11T14:36:43;7.20;76.20
1948;DHT22;974;52.400;9.818;2023-03-11T14:41:47;7.50;76.50
1948;DHT22;974;52.400;9.818;2023-03-11T14:44:13;7.10;74.80
1948;DHT22;974;52.400;9.818;2023-03-11T14:46:39;6.90;75.30
1948;DHT22;974;52.400;9.818;2023-03-11T14:49:06;6.60;75.90
1948;DHT22;974;52.400;9.818;2023-03-11T14:51:36;6.50;77.80
1948;DHT22;974;52.400;9.818;2023-03-11T14:54:06;6.40;76.80
1948;DHT22;974;52.400;9.818;2023-03-11T14:56:36;6.50;75.50
1948;DHT22;974;52.400;9.818;2023-03-11T14:59:15;6.70;79.50
1948;DHT22;974;52.400;9.818;2023-03-11T15:01:43;6.80;76.30
1948;DHT22;974;52.400;9.818;2023-03-11T15:06:51;8.70;78.10
1948;DHT22;974;52.400;9.818;2023-03-11T15:09:18;9.10;74.20
1948;DHT22;974;52.400;9.818;2023-03-11T15:11:59;9.50;75.30
1948;DHT22;974;52.400;9.818;2023-03-11T15:14:28;8.40;71.30
1948;DHT22;974;52.400;9.818;2023-03-11T15:17:18;8.10;76.70
1948;DHT22;974;52.400;9.818;2023-03-11T15:19:50;7.60;75.30
1948;DHT22;974;52.400;9.818;2023-03-11T15:24:52;7.00;77.50
1948;DHT22;974;52.400;9.818;2023-03-11T15:27:27;7.40;79.30
1948;DHT22;974;52.400;9.818;2023-03-11T15:29:54;7.30;77.30
1948;DHT22;974;52.400;9.818;2023-03-11T15:35:02;7.40;77.60
1948;DHT22;974;52.400;9.818;2023-03-11T15:37:29;6.90;76.00
1948;DHT22;974;52.400;9.818;2023-03-11T15:40:22;6.70;78.80
1948;DHT22;974;52.400;9.818;2023-03-11T15:43:02;6.50;79.70
1948;DHT22;974;52.400;9.818;2023-03-11T15:45:31;6.10;76.80
1948;DHT22;974;52.400;9.818;2023-03-11T15:47:56;6.00;78.60
1948;DHT22;974;52.400;9.818;2023-03-11T15:50:25;5.70;77.40
1948;DHT22;974;52.400;9.818;2023-03-11T15:52:55;5.70;79.40
1948;DHT22;974;52.400;9.818;2023-03-11T15:55:22;5.90;81.40
1948;DHT22;974;52.400;9.818;2023-03-11T15:57:49;5.90;78.10
1948;DHT22;974;52.400;9.818;2023-03-11T16:00:20;5.50;79.10
1948;DHT22;974;52.400;9.818;2023-03-11T16:02:47;5.40;79.70
1948;DHT22;974;52.400;9.818;2023-03-11T16:05:21;5.40;81.80
1948;DHT22;974;52.400;9.818;2023-03-11T16:07:47;5.10;79.50
1948;DHT22;974;52.400;9.818;2023-03-11T16:10:15;5.30;82.00
1948;DHT22;974;52.400;9.818;2023-03-11T16:12:42;5.20;82.40
1948;DHT22;974;52.400;9.818;2023-03-11T16:15:28;5.20;85.10
1948;DHT22;974;52.400;9.818;2023-03-11T16:17:57;5.20;85.30
1948;DHT22;974;52.400;9.818;2023-03-11T16:20:25;5.20;87.90
1948;DHT22;974;52.400;9.818;2023-03-11T16:22:53;5.00;86.60
1948;DHT22;974;52.400;9.818;2023-03-11T16:25:26;4.80;86.00
1948;DHT22;974;52.400;9.818;2023-03-11T16:27:53;4.80;88.00
1948;DHT22;974;52.400;9.818;2023-03-11T16:30:20;4.80;90.70
1948;DHT22;974;52.400;9.818;2023-03-11T16:32:45;4.80;90.10
1948;DHT22;974;52.400;9.818;2023-03-11T16:35:16;4.60;91.00
1948;DHT22;974;52.400;9.818;2023-03-11T16:37:42;4.50;90.20
1948;DHT22;974;52.400;9.818;2023-03-11T16:40:14;4.30;89.10
1948;DHT22;974;52.400;9.818;2023-03-11T16:42:40;4.30;91.50
1948;DHT22;974;52.400;9.818;2023-03-11T16:45:05;4.20;90.60
1948;DHT22;974;52.400;9.818;2023-03-11T16:47:31;4.20;91.20
1948;DHT22;974;52.400;9.818;2023-03-11T16:49:56;4.10;91.40
1948;DHT22;974;52.400;9.818;2023-03-11T16:52:22;4.00;91.80
1948;DHT22;974;52.400;9.818;2023-03-11T16:54:48;4.10;91.90
1948;DHT22;974;52.400;9.818;2023-03-11T16:57:14;3.70;90.70
1948;DHT22;974;52.400;9.818;2023-03-11T16:59:39;3.80;91.80
1948;DHT22;974;52.400;9.818;2023-03-11T17:02:05;3.80;92.00
1948;DHT22;974;52.400;9.818;2023-03-11T17:04:31;3.70;91.70
1948;DHT22;974;52.400;9.818;2023-03-11T17:06:57;3.70;93.10
1948;DHT22;974;52.400;9.818;2023-03-11T17:09:23;3.60;93.20
1948;DHT22;974;52.400;9.818;2023-03-11T17:11:49;3.50;93.10
1948;DHT22;974;52.400;9.818;2023-03-11T17:14:16;3.60;94.00
1948;DHT22;974;52.400;9.818;2023-03-11T17:16:42;3.50;94.30
1948;DHT22;974;52.400;9.818;2023-03-11T17:19:09;3.60;94.70
1948;DHT22;974;52.400;9.818;2023-03-11T17:21:34;3.50;94.60
1948;DHT22;974;52.400;9.818;2023-03-11T17:24:00;3.50;95.30
1948;DHT22;974;52.400;9.818;2023-03-11T17:26:25;3.30;95.00
1948;DHT22;974;52.400;9.818;2023-03-11T17:28:52;3.40;95.70
1948;DHT22;974;52.400;9.818;2023-03-11T17:31:18;3.30;95.30
1948;DHT22;974;52.400;9.818;2023-03-11T17:33:44;3.30;96.80
1948;DHT22;974;52.400;9.818;2023-03-11T17:36:12;3.20;97.10
1948;DHT22;974;52.400;9.818;2023-03-11T17:38:38;3.20;98.50
1948;DHT22;974;52.400;9.818;2023-03-11T17:41:08;3.10;97.80
1948;DHT22;974;52.400;9.818;2023-03-11T17:43:34;3.10;99.80
1948;DHT22;974;52.400;9.818;2023-03-11T17:45:59;3.10;99.90
1948;DHT22;974;52.400;9.818;2023-03-11T17:48:25;3.10;99.90
1948;DHT22;974;52.400;9.818;2023-03-11T17:50:52;3.00;99.90
1948;DHT22;974;52.400;9.818;2023-03-11T17:53:18;2.90;99.90
1948;DHT22;974;52.400;9.818;2023-03-11T17:55:43;2.80;99.90
1948;DHT22;974;52.400;9.818;2023-03-11T17:58:09;2.80;99.90
1948;DHT22;974;52.400;9.818;2023-03-11T18:00:34;2.80;99.90
1948;DHT22;974;52.400;9.818;2023-03-11T18:03:00;2.80;99.90
1948;DHT22;974;52.400;9.818;2023-03-11T18:05:25;2.70;99.90
1948;DHT22;974;52.400;9.818;2023-03-11T18:07:51;2.70;99.90
1948;DHT22;974;52.400;9.818;2023-03-11T18:10:16;2.60;99.90
1948;DHT22;974;52.400;9.818;2023-03-11T18:12:44;2.70;99.90